createdAt,value
2023-07-06T00:02:40.425Z,14.20
2023-07-06T00:05:50.004Z,14.10
2023-07-06T00:08:59.019Z,14.10
2023-07-06T00:12:07.890Z,14.00
2023-07-06T00:15:18.671Z,14.00
2023-07-06T00:18:29.357Z,14.00
2023-07-06T00:21:37.781Z,14.00
2023-07-06T00:24:47.688Z,14.00
2023-07-06T00:27:59.391Z,14.00
2023-07-06T00:31:12.089Z,13.90
2023-07-06T00:34:22.286Z,14.00
2023-07-06T00:37:30.817Z,14.00
2023-07-06T00:40:41.429Z,14.00
2023-07-06T00:43:53.748Z,14.00
2023-07-06T00:47:02.657Z,14.00
2023-07-06T00:50:17.804Z,13.90
2023-07-06T00:53:30.818Z,13.90
2023-07-06T00:56:42.204Z,13.90
2023-07-06T00:59:52.016Z,13.90
2023-07-06T01:03:03.078Z,13.90
2023-07-06T01:06:18.177Z,13.90
2023-07-06T01:09:29.056Z,13.90
2023-07-06T01:12:37.569Z,13.90
2023-07-06T01:15:57.792Z,13.80
2023-07-06T01:19:32.402Z,13.80
2023-07-06T01:23:16.897Z,13.80
2023-07-06T01:26:56.025Z,13.70
2023-07-06T01:30:52.100Z,13.60
2023-07-06T01:34:07.892Z,13.70
2023-07-06T01:37:21.134Z,13.70
2023-07-06T01:40:29.528Z,13.70
2023-07-06T01:43:38.643Z,13.70
2023-07-06T01:46:52.413Z,13.70
2023-07-06T01:50:04.844Z,13.70
2023-07-06T01:53:20.581Z,13.70
2023-07-06T01:56:34.636Z,13.80
2023-07-06T01:59:47.530Z,13.80
2023-07-06T02:02:56.702Z,13.90
2023-07-06T02:06:08.867Z,13.90
2023-07-06T02:09:20.115Z,14.00
2023-07-06T02:12:28.895Z,14.00
2023-07-06T02:15:37.406Z,14.10
2023-07-06T02:18:45.950Z,14.10
2023-07-06T02:21:56.500Z,14.10
2023-07-06T02:25:06.061Z,14.30
2023-07-06T02:28:14.837Z,14.20
2023-07-06T02:31:23.302Z,14.20
2023-07-06T02:34:31.754Z,14.20
2023-07-06T02:37:41.650Z,14.20
2023-07-06T02:40:51.391Z,14.20
2023-07-06T02:43:59.858Z,14.30
2023-07-06T02:47:09.475Z,14.30
2023-07-06T02:50:18.134Z,14.30
2023-07-06T02:53:28.629Z,14.20
2023-07-06T02:56:37.032Z,14.30
2023-07-06T02:59:46.087Z,14.30
2023-07-06T03:02:54.600Z,14.30
2023-07-06T03:06:04.041Z,14.50
2023-07-06T03:09:15.422Z,14.60
2023-07-06T03:12:25.173Z,14.60
2023-07-06T03:15:33.635Z,14.60
2023-07-06T03:18:42.069Z,14.60
2023-07-06T03:21:50.514Z,14.60
2023-07-06T03:25:00.967Z,14.60
2023-07-06T03:28:09.527Z,14.60
2023-07-06T03:31:18.357Z,14.60
2023-07-06T03:34:26.814Z,14.50
2023-07-06T03:37:35.311Z,14.50
2023-07-06T03:40:50.771Z,14.50
2023-07-06T03:44:00.026Z,14.50
2023-07-06T03:47:08.874Z,14.50
2023-07-06T03:50:19.194Z,14.50
2023-07-06T03:53:27.648Z,14.50
2023-07-06T03:56:38.690Z,14.50
2023-07-06T03:59:47.174Z,14.50
2023-07-06T04:02:57.603Z,14.50
2023-07-06T04:06:06.491Z,14.50
2023-07-06T04:09:15.027Z,14.60
2023-07-06T04:12:24.864Z,14.60
2023-07-06T04:15:33.701Z,14.60
2023-07-06T04:18:42.283Z,14.60
2023-07-06T04:21:50.816Z,14.70
2023-07-06T04:24:59.220Z,14.70
2023-07-06T04:28:11.943Z,14.70
2023-07-06T04:31:21.058Z,14.70
2023-07-06T04:34:31.524Z,14.70
2023-07-06T04:37:40.023Z,14.70
2023-07-06T04:40:48.388Z,14.80
2023-07-06T04:43:58.204Z,14.80
2023-07-06T04:47:07.306Z,14.80
2023-07-06T04:50:18.927Z,14.90
2023-07-06T04:53:27.443Z,14.90
2023-07-06T04:56:38.969Z,14.80
2023-07-06T04:59:48.873Z,14.80
2023-07-06T05:02:59.548Z,14.90
2023-07-06T05:06:13.268Z,14.90
2023-07-06T05:09:24.002Z,14.90
2023-07-06T05:12:32.752Z,15.00
2023-07-06T05:15:42.645Z,15.00
2023-07-06T05:18:52.804Z,14.90
2023-07-06T05:22:01.371Z,15.10
2023-07-06T05:25:10.848Z,15.30
2023-07-06T05:28:22.102Z,15.40
2023-07-06T05:31:32.568Z,15.50
2023-07-06T05:34:41.567Z,15.40
2023-07-06T05:37:50.275Z,15.40
2023-07-06T05:41:03.825Z,15.40
2023-07-06T05:44:12.372Z,15.40
2023-07-06T05:47:22.213Z,15.40
2023-07-06T05:50:30.841Z,15.60
2023-07-06T05:53:39.307Z,15.70
2023-07-06T05:56:49.492Z,15.90
2023-07-06T05:59:57.908Z,16.00
2023-07-06T06:03:07.766Z,16.00
2023-07-06T06:06:16.330Z,16.20
2023-07-06T06:09:27.124Z,16.40
2023-07-06T06:12:37.033Z,16.60
2023-07-06T06:15:45.604Z,16.60
2023-07-06T06:18:58.801Z,16.50
2023-07-06T06:22:08.003Z,16.70
2023-07-06T06:25:16.991Z,16.70
2023-07-06T06:28:25.512Z,16.70
2023-07-06T06:31:34.110Z,16.60
2023-07-06T06:34:46.052Z,16.50
2023-07-06T06:37:55.455Z,16.70
2023-07-06T06:41:07.164Z,16.60
2023-07-06T06:44:15.632Z,16.40
2023-07-06T06:47:24.150Z,16.70
2023-07-06T06:50:34.233Z,16.50
2023-07-06T06:53:42.778Z,16.40
2023-07-06T06:56:51.727Z,16.40
2023-07-06T07:00:00.759Z,16.40
2023-07-06T07:03:11.580Z,16.60
2023-07-06T07:06:23.393Z,16.50
2023-07-06T07:09:32.126Z,16.60
2023-07-06T07:12:41.493Z,16.50
2023-07-06T07:15:50.387Z,16.30
2023-07-06T07:18:58.929Z,16.30
2023-07-06T07:22:08.948Z,16.20
2023-07-06T07:25:18.675Z,16.20
2023-07-06T07:28:27.285Z,16.20
2023-07-06T07:31:35.867Z,16.20
2023-07-06T07:34:44.860Z,16.30
2023-07-06T07:37:54.825Z,16.30
2023-07-06T07:41:05.251Z,16.20
2023-07-06T07:44:13.782Z,16.10
2023-07-06T07:47:22.278Z,16.10
2023-07-06T07:50:33.723Z,16.40
2023-07-06T07:53:45.589Z,16.40
2023-07-06T07:56:55.370Z,16.40
2023-07-06T08:00:05.528Z,16.30
2023-07-06T08:03:22.663Z,16.30
2023-07-06T08:06:31.173Z,16.30
2023-07-06T08:09:41.103Z,16.20
2023-07-06T08:12:49.970Z,16.10
2023-07-06T08:15:58.702Z,16.10
2023-07-06T08:19:38.443Z,15.70
2023-07-06T08:22:36.084Z,15.60
2023-07-06T08:25:45.932Z,15.50
2023-07-06T08:28:55.870Z,15.40
2023-07-06T08:32:06.564Z,15.20
2023-07-06T08:35:15.085Z,15.20
2023-07-06T08:38:23.559Z,15.20
2023-07-06T08:41:35.838Z,15.00
2023-07-06T08:44:47.866Z,15.00
2023-07-06T08:47:57.433Z,15.00
2023-07-06T08:51:17.235Z,15.10
2023-07-06T08:54:28.032Z,15.10
2023-07-06T08:57:37.866Z,15.20
2023-07-06T09:00:47.596Z,15.20
2023-07-06T09:04:03.463Z,15.30
2023-07-06T09:07:14.429Z,15.20
2023-07-06T09:10:26.316Z,15.20
2023-07-06T09:13:46.452Z,15.20
2023-07-06T09:16:57.092Z,15.20
2023-07-06T09:20:06.513Z,15.20
2023-07-06T09:23:16.913Z,15.20
2023-07-06T09:26:33.954Z,15.20
2023-07-06T09:29:44.150Z,15.20
2023-07-06T09:32:55.890Z,15.30
2023-07-06T09:36:07.684Z,15.30
2023-07-06T09:39:16.379Z,15.40
2023-07-06T09:42:26.285Z,15.60
2023-07-06T09:45:36.329Z,15.70
2023-07-06T09:48:44.722Z,15.70
2023-07-06T09:51:58.396Z,15.90
2023-07-06T09:55:16.397Z,15.70
2023-07-06T09:58:28.583Z,15.70
2023-07-06T10:01:45.859Z,15.60
2023-07-06T10:05:03.611Z,15.50
2023-07-06T10:08:14.533Z,15.50
2023-07-06T10:11:36.811Z,15.50
2023-07-06T10:14:50.664Z,15.50
2023-07-06T10:18:07.599Z,15.50
2023-07-06T10:21:23.266Z,15.50
2023-07-06T10:24:40.799Z,15.40
2023-07-06T10:27:52.373Z,15.40
2023-07-06T10:31:04.764Z,15.40
2023-07-06T10:34:18.759Z,15.40
2023-07-06T10:37:28.592Z,15.30
2023-07-06T10:40:38.863Z,15.30
2023-07-06T10:43:50.130Z,15.20
2023-07-06T10:46:59.061Z,15.10
2023-07-06T10:50:31.277Z,15.00
2023-07-06T10:53:41.831Z,14.90
2023-07-06T10:57:01.664Z,14.90
2023-07-06T11:00:18.337Z,14.70
2023-07-06T11:03:29.880Z,14.60
2023-07-06T11:06:57.448Z,14.50
2023-07-06T11:10:26.383Z,14.50
2023-07-06T11:13:34.920Z,14.50
2023-07-06T11:16:53.266Z,14.40
2023-07-06T11:20:06.166Z,14.50
2023-07-06T11:23:20.493Z,14.40
2023-07-06T11:26:41.040Z,14.50
2023-07-06T11:29:50.244Z,14.40
2023-07-06T11:33:10.530Z,14.50
2023-07-06T11:36:29.040Z,14.70
2023-07-06T11:39:44.548Z,14.70
2023-07-06T11:43:19.004Z,14.80
2023-07-06T11:46:44.847Z,14.80
2023-07-06T11:49:55.745Z,14.90
2023-07-06T11:53:18.588Z,15.00
2023-07-06T11:56:41.106Z,15.10
2023-07-06T11:59:56.615Z,14.90
2023-07-06T12:03:09.244Z,14.80
2023-07-06T12:06:19.314Z,14.80
2023-07-06T12:09:27.846Z,14.80
2023-07-06T12:12:37.849Z,14.70
2023-07-06T12:15:48.481Z,14.70
2023-07-06T12:19:02.868Z,14.70
2023-07-06T12:22:16.926Z,14.70
2023-07-06T12:25:28.704Z,14.70
2023-07-06T12:28:38.509Z,14.60
2023-07-06T12:31:48.279Z,14.70
2023-07-06T12:34:56.812Z,14.70
2023-07-06T12:38:11.754Z,14.70
2023-07-06T12:41:21.438Z,14.80
2023-07-06T12:44:31.276Z,14.80
2023-07-06T12:47:41.896Z,14.80
2023-07-06T12:50:51.821Z,14.80
2023-07-06T12:54:00.755Z,14.80
2023-07-06T12:57:23.884Z,14.90
2023-07-06T13:00:35.729Z,14.90
2023-07-06T13:03:49.124Z,15.00
2023-07-06T13:06:57.515Z,15.00
2023-07-06T13:10:07.901Z,15.10
2023-07-06T13:13:21.616Z,15.20
2023-07-06T13:16:40.433Z,15.20
2023-07-06T13:19:48.998Z,15.20
2023-07-06T13:22:57.550Z,15.20
2023-07-06T13:26:06.308Z,15.30
2023-07-06T13:29:15.224Z,15.30
2023-07-06T13:32:25.895Z,15.40
2023-07-06T13:35:34.417Z,15.60
2023-07-06T13:38:42.954Z,15.70
2023-07-06T13:41:52.001Z,16.10
2023-07-06T13:45:00.409Z,16.20
2023-07-06T13:48:12.999Z,16.10
2023-07-06T13:51:22.209Z,16.20
2023-07-06T13:54:30.905Z,16.10
2023-07-06T13:57:42.934Z,16.10
2023-07-06T14:00:52.367Z,16.20
2023-07-06T14:04:02.697Z,16.20
2023-07-06T14:07:11.527Z,16.20
2023-07-06T14:10:21.305Z,16.30
2023-07-06T14:13:30.978Z,16.20
2023-07-06T14:16:39.547Z,16.30
2023-07-06T14:20:02.300Z,16.30
2023-07-06T14:23:15.303Z,16.40
2023-07-06T14:26:23.896Z,16.50
2023-07-06T14:29:32.376Z,16.60
2023-07-06T14:32:40.842Z,16.70
2023-07-06T14:35:50.675Z,16.70
2023-07-06T14:38:59.156Z,16.80
2023-07-06T14:42:09.468Z,17.00
2023-07-06T14:45:18.183Z,17.10
2023-07-06T14:48:26.847Z,17.20
2023-07-06T14:51:37.572Z,17.30
2023-07-06T14:54:47.796Z,17.40
2023-07-06T14:57:56.814Z,17.40
2023-07-06T15:01:05.474Z,17.40
2023-07-06T15:04:14.106Z,17.40
2023-07-06T15:07:25.209Z,17.40
2023-07-06T15:10:33.618Z,17.40
2023-07-06T15:13:42.160Z,17.40
2023-07-06T15:16:50.595Z,17.50
2023-07-06T15:19:59.115Z,17.60
2023-07-06T15:23:09.053Z,17.60
2023-07-06T15:26:17.870Z,17.60
2023-07-06T15:29:26.262Z,17.60
2023-07-06T15:32:36.617Z,17.50
2023-07-06T15:35:45.111Z,17.50
2023-07-06T15:38:55.129Z,17.40
2023-07-06T15:42:03.571Z,17.40
2023-07-06T15:45:12.538Z,17.40
2023-07-06T15:48:21.053Z,17.50
2023-07-06T15:51:29.513Z,17.60
2023-07-06T15:54:39.330Z,17.70
2023-07-06T15:57:47.862Z,17.50
2023-07-06T16:00:56.367Z,17.50
2023-07-06T16:04:05.713Z,17.60
2023-07-06T16:07:14.552Z,17.60
2023-07-06T16:10:25.169Z,17.60
2023-07-06T16:13:33.888Z,17.50
2023-07-06T16:16:42.471Z,17.50
2023-07-06T16:19:50.936Z,17.50
2023-07-06T16:22:59.550Z,17.50
2023-07-06T16:26:11.428Z,17.30
2023-07-06T16:29:20.001Z,17.20
2023-07-06T16:32:28.453Z,17.20
2023-07-06T16:35:36.983Z,17.10
2023-07-06T16:38:45.447Z,17.10
2023-07-06T16:41:55.266Z,17.00
2023-07-06T16:45:03.693Z,17.00
2023-07-06T16:48:12.285Z,16.90
2023-07-06T16:51:20.924Z,16.90
2023-07-06T16:54:29.379Z,16.80
2023-07-06T16:57:39.232Z,16.80
2023-07-06T17:00:48.238Z,16.80
2023-07-06T17:03:56.714Z,16.80
2023-07-06T17:07:05.474Z,16.80
2023-07-06T17:10:13.934Z,16.80
2023-07-06T17:13:25.292Z,16.90
2023-07-06T17:16:36.172Z,16.90
2023-07-06T17:19:44.653Z,16.90
2023-07-06T17:22:53.491Z,16.80
2023-07-06T17:26:03.476Z,16.80
2023-07-06T17:29:13.919Z,16.80
2023-07-06T17:32:22.403Z,16.80
2023-07-06T17:35:30.841Z,16.70
2023-07-06T17:38:39.823Z,16.60
2023-07-06T17:41:48.313Z,16.60
2023-07-06T17:44:58.149Z,16.50
2023-07-06T17:48:07.092Z,16.40
2023-07-06T17:51:15.617Z,16.40
2023-07-06T17:54:24.111Z,16.60
2023-07-06T17:57:32.554Z,16.60
2023-07-06T18:00:42.630Z,16.50
2023-07-06T18:03:51.913Z,16.50
2023-07-06T18:07:00.415Z,16.50
2023-07-06T18:10:09.556Z,16.60
2023-07-06T18:13:21.663Z,16.60
2023-07-06T18:16:31.822Z,16.50
2023-07-06T18:19:40.300Z,16.50
2023-07-06T18:22:48.759Z,16.40
2023-07-06T18:26:00.486Z,16.40
2023-07-06T18:29:09.327Z,16.30
2023-07-06T18:32:19.347Z,16.30
2023-07-06T18:35:27.911Z,16.30
2023-07-06T18:38:36.685Z,16.20
2023-07-06T18:41:45.415Z,16.10
2023-07-06T18:45:04.610Z,16.10
2023-07-06T18:48:15.633Z,16.10
2023-07-06T18:51:24.271Z,16.00
2023-07-06T18:54:33.388Z,15.90
2023-07-06T18:57:42.196Z,16.00
2023-07-06T19:00:51.027Z,15.90
2023-07-06T19:04:02.590Z,15.90
2023-07-06T19:07:11.075Z,15.90
2023-07-06T19:10:19.670Z,15.90
2023-07-06T19:13:28.303Z,15.80
2023-07-06T19:16:36.751Z,15.80
2023-07-06T19:19:46.663Z,15.80
2023-07-06T19:22:56.438Z,15.80
2023-07-06T19:26:05.178Z,15.80
2023-07-06T19:29:14.318Z,15.80
2023-07-06T19:32:22.878Z,15.80
2023-07-06T19:35:36.730Z,15.70
2023-07-06T19:38:45.184Z,15.70
2023-07-06T19:41:53.788Z,15.70
2023-07-06T19:45:02.213Z,15.70
2023-07-06T19:48:10.751Z,15.70
2023-07-06T19:51:22.555Z,15.70
2023-07-06T19:54:30.962Z,15.60
2023-07-06T19:57:45.008Z,15.60
2023-07-06T20:00:58.207Z,15.60
2023-07-06T20:04:11.032Z,15.50
2023-07-06T20:07:20.828Z,15.50
2023-07-06T20:10:29.383Z,15.50
2023-07-06T20:13:40.359Z,15.40
2023-07-06T20:16:48.951Z,15.40
2023-07-06T20:19:57.414Z,15.40
2023-07-06T20:23:07.412Z,15.30
2023-07-06T20:26:16.272Z,15.30
2023-07-06T20:29:24.724Z,15.30
2023-07-06T20:32:34.263Z,15.30
2023-07-06T20:35:43.659Z,15.30
2023-07-06T20:38:54.116Z,15.30
2023-07-06T20:42:02.620Z,15.30
2023-07-06T20:45:11.977Z,15.30
2023-07-06T20:48:20.430Z,15.30
2023-07-06T20:51:29.509Z,15.30
2023-07-06T20:54:39.450Z,15.20
2023-07-06T20:57:48.631Z,15.20
2023-07-06T21:00:58.381Z,15.20
2023-07-06T21:04:07.138Z,15.20
2023-07-06T21:07:15.753Z,15.20
2023-07-06T21:10:27.426Z,15.20
2023-07-06T21:13:36.065Z,15.10
2023-07-06T21:16:46.356Z,15.10
2023-07-06T21:19:55.011Z,15.10
2023-07-06T21:23:04.348Z,15.10
2023-07-06T21:26:14.201Z,15.10
2023-07-06T21:29:22.700Z,15.00
2023-07-06T21:32:31.297Z,15.10
2023-07-06T21:35:40.179Z,15.00
2023-07-06T21:38:49.159Z,15.00
2023-07-06T21:41:59.090Z,15.00
2023-07-06T21:45:08.652Z,14.90
2023-07-06T21:48:17.073Z,14.90
2023-07-06T21:51:27.017Z,14.90
2023-07-06T21:54:35.441Z,15.00
2023-07-06T21:57:45.224Z,14.90
2023-07-06T22:00:53.858Z,14.90
2023-07-06T22:04:02.395Z,14.90
2023-07-06T22:07:10.863Z,14.90
2023-07-06T22:10:19.422Z,14.90
2023-07-06T22:13:29.507Z,14.80
2023-07-06T22:16:38.075Z,14.80
2023-07-06T22:19:46.585Z,14.80
2023-07-06T22:22:55.043Z,14.80
2023-07-06T22:26:03.665Z,14.80
2023-07-06T22:29:13.558Z,14.80
2023-07-06T22:32:22.000Z,14.70
2023-07-06T22:35:31.211Z,14.70
2023-07-06T22:38:41.458Z,14.70
2023-07-06T22:41:49.919Z,14.70
2023-07-06T22:44:59.744Z,14.70
2023-07-06T22:48:08.358Z,14.70
2023-07-06T22:51:16.807Z,14.70
2023-07-06T22:54:25.217Z,14.70
2023-07-06T22:57:33.623Z,14.70
2023-07-06T23:00:43.504Z,14.70
2023-07-06T23:03:52.112Z,14.70
2023-07-06T23:07:00.611Z,14.60
2023-07-06T23:10:10.037Z,14.60
2023-07-06T23:13:19.919Z,14.60
2023-07-06T23:16:32.909Z,14.60
2023-07-06T23:19:46.681Z,14.60
2023-07-06T23:22:55.147Z,14.50
2023-07-06T23:26:03.656Z,14.60
2023-07-06T23:29:13.327Z,14.50
2023-07-06T23:32:23.358Z,14.50
2023-07-06T23:35:35.249Z,14.60
2023-07-06T23:38:44.357Z,14.50
2023-07-06T23:41:53.008Z,14.60
2023-07-06T23:45:01.447Z,14.50
2023-07-06T23:48:11.323Z,14.50
2023-07-06T23:51:22.712Z,14.50
2023-07-06T23:54:31.510Z,14.50
2023-07-06T23:57:40.405Z,14.40
